HomeShort term forecast

Short term forecast

Graphical weather forecast for the next 48 hours for Montreal:
Short term forecast
This weather forecast is automatically refreshed every 3 hours.

Hourly Experimental Forecast for the next 48 hours

Overall summary: Partly cloudy starting tomorrow afternoon, continuing until tomorrow evening.

 Date & Hour   Temp   Feel   Baro   Hum   Speed & Bearing   Precipitation   Visibility   Cloud cover   Conditions 
 23/09/2017 - 02:00  17.1°C  17.1°C  1018.0 hPa  82%  2.7 km/h   --  16.1km  2%  Clear 
 23/09/2017 - 03:00  17.1°C  17.1°C  1017.4 hPa  78%  2.9 km/h   0.02 mm/h  16.1km  1%  Clear 
 23/09/2017 - 04:00  16.6°C  16.6°C  1017.0 hPa  78%  4.7 km/h   --  16.1km  1%  Clear 
 23/09/2017 - 05:00  16.2°C  16.2°C  1016.9 hPa  78%  5.4 km/h   0.04 mm/h  14.1km  1%  Clear 
 23/09/2017 - 06:00  15.6°C  15.6°C  1017.1 hPa  81%  6.4 km/h   0.04 mm/h  14.2km  9%  Clear 
 23/09/2017 - 07:00  15.5°C  15.5°C  1017.4 hPa  82%  7.5 km/h   --  14.0km  24%  Clear 
 23/09/2017 - 08:00  16.2°C  16.2°C  1017.6 hPa  79%  8.3 km/h   0.01 mm/h  15.1km  30%  Partly Cloudy 
 23/09/2017 - 09:00  18.0°C  18.0°C  1017.5 hPa  72%  9.4 km/h   0.01 mm/h  16.1km  23%  Clear 
 23/09/2017 - 10:00  20.4°C  20.4°C  1017.2 hPa  64%  10.7 km/h   0.04 mm/h  16.1km  15%  Clear 
 23/09/2017 - 11:00  22.2°C  22.2°C  1017.0 hPa  60%  10.5 km/h   --  16.1km  10%  Clear 
 23/09/2017 - 12:00  23.3°C  23.3°C  1016.7 hPa  59%  9.8 km/h   0.04 mm/h  16.1km  31%  Partly Cloudy 
 23/09/2017 - 13:00  23.9°C  23.9°C  1016.2 hPa  60%  10.6 km/h   --  16.1km  26%  Partly Cloudy 
 23/09/2017 - 14:00  25.3°C  25.4°C  1015.6 hPa  59%  10.9 km/h   --  16.1km  12%  Clear 
 23/09/2017 - 15:00  26.5°C  27.5°C  1015.2 hPa  61%  14.0 km/h   --  16.1km  25%  Partly Cloudy 
 23/09/2017 - 16:00  27.1°C  28.4°C  1015.1 hPa  61%  14.9 km/h   --  16.1km  36%  Partly Cloudy 
 23/09/2017 - 17:00  27.4°C  28.9°C  1015.1 hPa  62%  15.2 km/h   --  16.1km  42%  Partly Cloudy 
 23/09/2017 - 18:00  26.8°C  28.2°C  1015.2 hPa  66%  14.1 km/h   --  16.1km  40%  Partly Cloudy 
 23/09/2017 - 19:00  25.4°C  25.8°C  1015.4 hPa  72%  12.4 km/h   0.01 mm/h  16.1km  34%  Partly Cloudy 
 23/09/2017 - 20:00  24.2°C  24.7°C  1015.6 hPa  77%  11.0 km/h   0.01 mm/h  16.1km  29%  Partly Cloudy 
 23/09/2017 - 21:00  23.5°C  24.1°C  1015.8 hPa  81%  10.3 km/h   0.01 mm/h  16.1km  26%  Partly Cloudy 
 23/09/2017 - 22:00  23.2°C  23.8°C  1016.0 hPa  82%  10.1 km/h   --  16.1km  22%  Clear 
 23/09/2017 - 23:00  23.1°C  23.5°C  1016.2 hPa  81%  10.1 km/h   --  16.1km  19%  Clear 
 24/09/2017 - 00:00  22.9°C  23.3°C  1016.3 hPa  80%  10.6 km/h   --  16.1km  19%  Clear 
 24/09/2017 - 01:00  22.7°C  23.0°C  1016.3 hPa  77%  11.4 km/h   --  16.1km  18%  Clear 
 24/09/2017 - 02:00  22.3°C  22.6°C  1016.3 hPa  77%  12.1 km/h   0.01 mm/h  16.1km  17%  Clear 
 24/09/2017 - 03:00  21.7°C  21.9°C  1016.0 hPa  78%  12.1 km/h   0.01 mm/h  16.1km  15%  Clear 
 24/09/2017 - 04:00  21.1°C  21.3°C  1015.8 hPa  80%  12.1 km/h   0.01 mm/h  16.1km  12%  Clear 
 24/09/2017 - 05:00  20.5°C  20.8°C  1015.7 hPa  83%  12.2 km/h   0.01 mm/h  16.1km  11%  Clear 
 24/09/2017 - 06:00  19.9°C  20.2°C  1015.9 hPa  86%  12.8 km/h   0.01 mm/h  16.1km  13%  Clear 
 24/09/2017 - 07:00  19.4°C  19.7°C  1016.2 hPa  88%  13.6 km/h   0.01 mm/h  16.1km  17%  Clear 
 24/09/2017 - 08:00  19.7°C  20.0°C  1016.4 hPa  88%  14.2 km/h   0.01 mm/h  16.1km  21%  Clear 
 24/09/2017 - 09:00  21.0°C  21.3°C  1016.5 hPa  85%  14.1 km/h   0.01 mm/h  16.1km  26%  Partly Cloudy 
 24/09/2017 - 10:00  22.7°C  23.1°C  1016.6 hPa  81%  13.8 km/h   --  16.1km  31%  Partly Cloudy 
 24/09/2017 - 11:00  24.2°C  24.7°C  1016.5 hPa  77%  13.8 km/h   --  16.1km  34%  Partly Cloudy 
 24/09/2017 - 12:00  25.5°C  26.0°C  1016.2 hPa  73%  13.8 km/h   --  16.1km  35%  Partly Cloudy 
 24/09/2017 - 13:00  26.7°C  28.3°C  1015.9 hPa  69%  14.2 km/h   --  16.1km  31%  Partly Cloudy 
 24/09/2017 - 14:00  27.7°C  29.7°C  1015.6 hPa  66%  14.5 km/h   --  16.1km  26%  Partly Cloudy 
 24/09/2017 - 15:00  28.5°C  30.7°C  1015.3 hPa  63%  14.9 km/h   --  16.1km  20%  Clear 
 24/09/2017 - 16:00  29.2°C  31.5°C  1015.0 hPa  61%  16.0 km/h   0.01 mm/h  16.1km  12%  Clear 
 24/09/2017 - 17:00  29.5°C  31.8°C  1014.9 hPa  60%  16.4 km/h   0.01 mm/h  16.1km  9%  Clear 
 24/09/2017 - 18:00  28.7°C  30.9°C  1015.2 hPa  63%  14.6 km/h   0.01 mm/h  16.1km  16%  Clear 
 24/09/2017 - 19:00  27.0°C  28.8°C  1015.8 hPa  69%  10.8 km/h   0.01 mm/h  16.1km  25%  Partly Cloudy 
 24/09/2017 - 20:00  25.6°C  26.2°C  1016.3 hPa  74%  9.9 km/h   0.01 mm/h  16.1km  29%  Partly Cloudy 
 24/09/2017 - 21:00  24.7°C  25.2°C  1016.7 hPa  77%  8.9 km/h   0.01 mm/h  16.1km  21%  Clear 
 24/09/2017 - 22:00  24.1°C  24.6°C  1017.0 hPa  78%  8.4 km/h   0.01 mm/h  16.1km  8%  Clear 
 24/09/2017 - 23:00  23.6°C  24.1°C  1017.3 hPa  79%  7.9 km/h   0.01 mm/h  16.1km  0%  Clear 
 25/09/2017 - 00:00  23.2°C  23.6°C  1017.4 hPa  79%  6.7 km/h   0.01 mm/h  16.1km  6%  Clear 
 25/09/2017 - 01:00  22.7°C  23.1°C  1017.5 hPa  79%  5.6 km/h   --  16.1km  16%  Clear 
Test

 

Past weather and reports

Past weatherFind in this section the past weather conditions, weather archive, graphics, reports and statistics.

Current conditions

Current weather condition for MontrealAll you need to know about the current weather conditions for Montreal. Weather data is updated every 10 minutes.

Weather forecast

Current Montreal weatherSince 2004, celinium.com website provides accurate weather forecast for Montreal's island.